Time;durP1;ratioP1;P1;durP2;ratioP2;P2;SDS_P1;SDS_P2;PMS_P1;PMS_P2;Temp;Humidity;BMP_temperature;BMP_pressure;BME280_temperature;BME280_humidity;BME280_pressure;Samples;Min_cycle;Max_cycle;Signal;HPM_P1;HPM_P2
2022/01/02 00:01:20;;;;;;;4.78;2.20;;;20.40;62.40;;;;;;4428377;32;20079;-77
2022/01/02 00:03:50;;;;;;;4.93;2.13;;;20.30;62.30;;;;;;4429732;32;20138;-81
2022/01/02 00:06:22;;;;;;;5.90;2.35;;;20.30;62.40;;;;;;4414455;32;20089;-76
2022/01/02 00:08:52;;;;;;;6.22;2.42;;;20.30;62.40;;;;;;4427883;32;20071;-78
2022/01/02 00:11:21;;;;;;;6.90;2.15;;;20.30;62.40;;;;;;4427930;32;20078;-76
2022/01/02 00:13:52;;;;;;;4.72;2.00;;;20.30;62.40;;;;;;4428112;32;20140;-76
2022/01/02 00:16:18;;;;;;;5.05;1.88;;;20.30;62.40;;;;;;4428649;32;20082;-76
2022/01/02 00:18:51;;;;;;;5.72;1.98;;;20.30;62.50;;;;;;4428824;32;20094;-76
2022/01/02 00:21:18;;;;;;;8.25;2.10;;;20.30;62.50;;;;;;4429203;32;20200;-76
2022/01/02 00:24:02;;;;;;;6.07;2.13;;;20.20;62.40;;;;;;4428145;32;20648;-76
2022/01/02 00:26:39;;;;;;;4.78;1.95;;;20.20;62.40;;;;;;4429079;32;20220;-76
2022/01/02 00:29:07;;;;;;;5.95;2.08;;;20.20;62.50;;;;;;4427627;32;20110;-76
2022/01/02 00:31:33;;;;;;;4.28;1.75;;;20.20;62.40;;;;;;4429141;32;20629;-76
2022/01/02 00:34:05;;;;;;;4.10;2.08;;;20.20;62.30;;;;;;4428547;32;20114;-76
2022/01/02 00:36:32;;;;;;;5.65;1.75;;;20.20;62.40;;;;;;4415402;32;20080;-77
2022/01/02 00:38:59;;;;;;;3.38;1.58;;;20.20;62.50;;;;;;4427201;32;20082;-77
2022/01/02 00:41:38;;;;;;;3.88;1.90;;;20.20;62.60;;;;;;4428622;32;20114;-76
2022/01/02 00:44:33;;;;;;;5.55;1.70;;;20.20;62.50;;;;;;4427721;32;20118;-77
2022/01/02 00:47:15;;;;;;;3.22;1.70;;;20.20;62.40;;;;;;4397007;32;20708;-76
2022/01/02 00:49:51;;;;;;;6.95;2.30;;;20.10;62.30;;;;;;4428978;32;20105;-77
2022/01/02 00:52:18;;;;;;;6.90;1.92;;;20.10;62.40;;;;;;4428671;32;20074;-76
2022/01/02 00:54:45;;;;;;;3.38;1.88;;;20.10;62.40;;;;;;4428888;32;20086;-76
2022/01/02 00:57:19;;;;;;;4.50;1.58;;;20.10;62.30;;;;;;4428470;32;20151;-76
2022/01/02 01:00:00;;;;;;;5.05;1.73;;;20.10;62.30;;;;;;4428994;32;20078;-76
2022/01/02 01:02:33;;;;;;;5.95;1.60;;;20.10;62.30;;;;;;4427543;32;20086;-76
2022/01/02 01:05:04;;;;;;;4.07;1.60;;;20.10;62.30;;;;;;4414607;32;20114;-76
2022/01/02 01:07:32;;;;;;;5.03;2.03;;;20.10;62.40;;;;;;4429054;32;20256;-76
2022/01/02 01:09:59;;;;;;;5.88;1.90;;;20.10;62.30;;;;;;4428216;32;20105;-76
2022/01/02 01:12:26;;;;;;;3.72;1.50;;;20.10;62.40;;;;;;4414690;32;20417;-77
2022/01/02 01:14:52;;;;;;;3.17;1.40;;;20.10;62.40;;;;;;4427212;32;20164;-79
2022/01/02 01:17:18;;;;;;;5.80;2.10;;;20.10;62.30;;;;;;4427389;32;20083;-76
2022/01/02 01:19:45;;;;;;;4.05;1.70;;;20.10;62.30;;;;;;4428577;32;20075;-76
2022/01/02 01:22:11;;;;;;;4.30;1.70;;;20.10;62.30;;;;;;4428276;32;20552;-76
2022/01/02 01:24:37;;;;;;;4.07;1.77;;;20.10;62.30;;;;;;4414639;32;20088;-75
2022/01/02 01:27:07;;;;;;;3.28;1.67;;;20.10;62.30;;;;;;4429264;32;20085;-77
2022/01/02 01:29:34;;;;;;;3.63;1.60;;;20.00;62.30;;;;;;4431915;32;20097;-76
2022/01/02 01:32:08;;;;;;;3.80;1.73;;;20.00;62.30;;;;;;4417378;32;20164;-76
2022/01/02 01:34:34;;;;;;;;;;;20.00;62.30;;;;;;4418205;32;20176;-76
2022/01/02 01:37:02;;;;;;;4.65;1.75;;;20.00;62.20;;;;;;4431155;32;19981;-76
2022/01/02 01:39:27;;;;;;;4.30;1.55;;;20.00;62.30;;;;;;4417438;32;20070;-76
2022/01/02 01:41:54;;;;;;;2.65;1.38;;;20.00;62.30;;;;;;4430435;32;20188;-76
2022/01/02 01:44:37;;;;;;;3.35;1.70;;;20.00;62.20;;;;;;4431196;32;20074;-76
2022/01/02 01:47:03;;;;;;;3.83;1.42;;;20.00;62.30;;;;;;4431096;32;20082;-76
2022/01/02 01:49:30;;;;;;;5.20;1.77;;;20.00;62.20;;;;;;4430001;32;20110;-76
2022/01/02 01:51:56;;;;;;;3.88;1.50;;;20.00;62.20;;;;;;4431438;32;20070;-76
2022/01/02 01:54:23;;;;;;;3.85;1.60;;;19.90;62.20;;;;;;4429702;32;20808;-76
2022/01/02 01:56:53;;;;;;;4.18;1.55;;;19.90;62.20;;;;;;4417350;32;20082;-76
2022/01/02 01:59:20;;;;;;;2.88;1.40;;;20.00;62.20;;;;;;4429555;32;20094;-76
2022/01/02 02:01:47;;;;;;;3.70;1.55;;;19.90;62.20;;;;;;4431181;32;20094;-76
2022/01/02 02:04:13;;;;;;;2.28;1.20;;;19.90;62.10;;;;;;4430859;32;20225;-76
2022/01/02 02:06:40;;;;;;;2.15;1.33;;;19.90;62.10;;;;;;4417025;32;20110;-76
2022/01/02 02:09:06;;;;;;;4.45;1.73;;;19.90;62.10;;;;;;4428886;32;20513;-77
2022/01/02 02:11:35;;;;;;;3.53;1.73;;;19.90;62.10;;;;;;4430409;32;20228;-76
2022/01/02 02:14:04;;;;;;;2.60;1.45;;;19.90;62.10;;;;;;4442300;32;20097;-83
2022/01/02 02:16:31;;;;;;;3.08;1.65;;;19.90;62.20;;;;;;4429787;32;20240;-76
2022/01/02 02:19:04;;;;;;;2.78;1.63;;;19.90;62.10;;;;;;4430308;32;20216;-76
2022/01/02 02:21:39;;;;;;;1.90;1.40;;;19.90;62.20;;;;;;4430147;32;20093;-77
2022/01/02 02:24:07;;;;;;;2.58;1.50;;;19.90;62.00;;;;;;4429253;32;20130;-76
2022/01/02 02:26:34;;;;;;;4.97;1.30;;;19.80;62.10;;;;;;4429422;32;20180;-76
2022/01/02 02:29:01;;;;;;;1.88;1.40;;;19.80;62.10;;;;;;4430496;32;20128;-76
2022/01/02 02:31:27;;;;;;;2.25;1.20;;;19.80;62.00;;;;;;4416469;32;20090;-75
2022/01/02 02:33:53;;;;;;;4.90;1.80;;;19.90;62.00;;;;;;4430610;32;20505;-76
2022/01/02 02:36:20;;;;;;;2.20;1.13;;;19.80;62.00;;;;;;4430047;32;20118;-75
2022/01/02 02:38:47;;;;;;;2.22;1.48;;;19.80;62.00;;;;;;4429833;32;20074;-76
2022/01/02 02:41:13;;;;;;;2.85;1.20;;;19.80;62.10;;;;;;4416508;32;20085;-76
2022/01/02 02:51:39;;;;;;;2.90;1.42;;;19.80;62.00;;;;;;4429236;32;20094;-76
2022/01/02 02:54:06;;;;;;;1.83;1.15;;;19.80;62.10;;;;;;4430354;32;20228;-82
2022/01/02 02:57:33;;;;;;;2.40;1.50;;;19.80;62.00;;;;;;4430259;32;20078;-76
2022/01/02 02:59:32;;;;;;;2.67;1.48;;;19.70;61.90;;;;;;4416426;32;20094;-76
2022/01/02 03:01:59;;;;;;;2.78;1.63;;;19.70;62.00;;;;;;4416686;32;20071;-75
2022/01/02 03:04:25;;;;;;;1.55;1.33;;;19.70;62.00;;;;;;4416303;32;20098;-76
2022/01/02 03:06:52;;;;;;;2.92;1.40;;;19.70;62.00;;;;;;4429185;32;20436;-75
2022/01/02 03:09:36;;;;;;;2.50;1.40;;;19.70;62.00;;;;;;4429278;32;20204;-76
2022/01/02 03:12:02;;;;;;;2.88;1.70;;;19.70;62.00;;;;;;4416457;32;20165;-76
2022/01/02 03:14:28;;;;;;;3.55;1.33;;;19.70;62.00;;;;;;4429682;32;20604;-76
2022/01/02 03:16:54;;;;;;;2.60;1.50;;;19.70;62.00;;;;;;4416400;32;20066;-75
2022/01/02 03:19:20;;;;;;;2.97;1.50;;;19.70;62.00;;;;;;4428759;32;20098;-75
2022/01/02 03:21:46;;;;;;;3.22;1.48;;;19.70;62.00;;;;;;4430100;32;20074;-79
2022/01/02 03:24:12;;;;;;;1.60;1.13;;;19.70;62.00;;;;;;4415706;32;20067;-76
2022/01/02 03:26:38;;;;;;;2.17;1.10;;;19.70;62.00;;;;;;4428678;32;20074;-75
2022/01/02 03:29:03;;;;;;;1.70;1.23;;;19.70;62.00;;;;;;4428576;32;20160;-77
2022/01/02 03:31:29;;;;;;;3.50;1.05;;;19.70;62.00;;;;;;4428661;32;20138;-76
2022/01/02 03:33:55;;;;;;;2.35;1.10;;;19.60;62.00;;;;;;4429982;32;20393;-75
2022/01/02 03:36:21;;;;;;;2.30;1.30;;;19.60;62.00;;;;;;4428314;32;20092;-75
2022/01/02 03:38:48;;;;;;;2.17;1.25;;;19.60;62.00;;;;;;4429566;32;20231;-75
2022/01/02 03:41:14;;;;;;;2.88;1.30;;;19.60;62.00;;;;;;4429382;32;20070;-76
2022/01/02 03:43:40;;;;;;;2.58;1.20;;;19.60;62.00;;;;;;4429787;32;20422;-75
2022/01/02 03:46:06;;;;;;;2.10;1.40;;;19.60;62.00;;;;;;4428651;32;20169;-76
2022/01/02 03:48:32;;;;;;;1.85;1.20;;;19.60;62.00;;;;;;4428302;32;20229;-76
2022/01/02 03:50:59;;;;;;;3.17;1.20;;;19.60;62.00;;;;;;4429267;32;20074;-76
2022/01/02 03:53:25;;;;;;;3.05;1.23;;;19.60;62.00;;;;;;4429300;32;20113;-76
2022/01/02 03:55:52;;;;;;;2.22;1.20;;;19.60;62.00;;;;;;4429680;32;20553;-75
2022/01/02 03:58:18;;;;;;;2.85;1.33;;;19.50;62.00;;;;;;4429152;32;20224;-76
2022/01/02 04:00:44;;;;;;;2.53;1.00;;;19.50;62.00;;;;;;4415891;32;20070;-76
2022/01/02 04:03:10;;;;;;;2.25;1.30;;;19.50;62.00;;;;;;4429378;32;20129;-76
2022/01/02 04:05:37;;;;;;;2.90;1.30;;;19.50;62.00;;;;;;4415193;32;20397;-75
2022/01/02 04:08:04;;;;;;;2.53;1.30;;;19.50;62.00;;;;;;4429485;32;20485;-75
2022/01/02 04:10:30;;;;;;;2.20;1.20;;;19.50;62.00;;;;;;4429117;32;20114;-75
2022/01/02 04:12:56;;;;;;;1.98;1.35;;;19.50;62.00;;;;;;4429151;32;20082;-76
2022/01/02 04:15:22;;;;;;;2.15;1.30;;;19.50;62.00;;;;;;4428699;32;20082;-76
2022/01/02 04:17:48;;;;;;;2.50;1.35;;;19.50;62.00;;;;;;4429254;32;20066;-76
2022/01/02 04:20:15;;;;;;;2.08;1.25;;;19.50;61.90;;;;;;4427872;32;20204;-76
2022/01/02 04:22:41;;;;;;;1.85;1.25;;;19.50;62.00;;;;;;4428914;32;20505;-75
2022/01/02 04:25:07;;;;;;;1.55;1.15;;;19.50;62.00;;;;;;4428115;32;20089;-75
2022/01/02 04:27:34;;;;;;;2.05;1.50;;;19.50;62.90;;;;;;4427527;32;20078;-76
2022/01/02 04:30:00;;;;;;;1.83;1.30;;;19.50;62.00;;;;;;4429206;32;20110;-75
2022/01/02 04:32:26;;;;;;;2.08;1.20;;;19.50;62.00;;;;;;4428744;32;20501;-75
2022/01/02 04:34:51;;;;;;;2.40;1.67;;;19.50;62.00;;;;;;4429087;32;20558;-75
2022/01/02 04:37:17;;;;;;;3.55;1.25;;;19.50;62.00;;;;;;4429053;32;20527;-83
2022/01/02 04:39:44;;;;;;;2.58;1.20;;;19.50;62.00;;;;;;4429164;32;20098;-75
2022/01/02 04:42:11;;;;;;;2.58;1.30;;;19.50;62.00;;;;;;4427941;32;20063;-76
2022/01/02 04:44:37;;;;;;;2.55;1.40;;;19.50;62.00;;;;;;4428779;32;20295;-75
2022/01/02 04:47:06;;;;;;;2.08;1.20;;;19.40;61.90;;;;;;4427913;32;20094;-76
2022/01/02 04:49:32;;;;;;;2.15;1.25;;;19.40;61.90;;;;;;4428164;32;20171;-76
2022/01/02 04:51:58;;;;;;;4.30;1.40;;;19.40;61.90;;;;;;4428887;32;20086;-75
2022/01/02 04:54:24;;;;;;;3.20;1.23;;;19.50;62.00;;;;;;4427432;32;20199;-76
2022/01/02 04:56:50;;;;;;;3.22;1.40;;;19.40;61.90;;;;;;4427831;32;20090;-75
2022/01/02 04:59:17;;;;;;;2.53;1.35;;;19.40;61.90;;;;;;4428977;32;20212;-76
2022/01/02 05:01:42;;;;;;;4.32;1.48;;;19.40;62.00;;;;;;4429922;32;20152;-76
2022/01/02 05:04:08;;;;;;;2.33;1.25;;;19.40;61.90;;;;;;4433520;32;20133;-76
2022/01/02 05:06:34;;;;;;;1.42;1.00;;;19.40;61.90;;;;;;4433818;32;20413;-76
2022/01/02 05:09:00;;;;;;;3.42;1.27;;;19.40;62.00;;;;;;4432574;32;20199;-75
2022/01/02 05:11:26;;;;;;;2.78;1.30;;;19.40;62.00;;;;;;4433533;32;20097;-77
2022/01/02 05:13:52;;;;;;;1.60;1.25;;;19.40;62.00;;;;;;4433987;32;20405;-75
2022/01/02 05:16:18;;;;;;;1.60;1.20;;;19.40;62.00;;;;;;4432735;32;20124;-76
2022/01/02 05:18:44;;;;;;;2.85;1.30;;;19.40;62.00;;;;;;4432390;32;20544;-75
2022/01/02 05:21:09;;;;;;;2.90;1.30;;;19.40;62.00;;;;;;4433992;32;20448;-76
2022/01/02 05:23:35;;;;;;;2.05;1.20;;;19.30;61.90;;;;;;4432381;32;20082;-76
2022/01/02 05:26:01;;;;;;;2.30;1.25;;;19.30;61.90;;;;;;4433778;32;20124;-76
2022/01/02 05:28:27;;;;;;;1.98;1.30;;;19.40;62.00;;;;;;4433475;32;20236;-82
2022/01/02 05:30:53;;;;;;;1.73;1.17;;;19.30;61.90;;;;;;4433502;32;20066;-75
2022/01/02 05:33:18;;;;;;;2.40;1.42;;;19.30;61.90;;;;;;4432387;32;20078;-76
2022/01/02 05:35:44;;;;;;;1.95;1.25;;;19.30;61.90;;;;;;4432243;32;20180;-76
2022/01/02 05:38:10;;;;;;;2.05;1.10;;;19.30;61.90;;;;;;4433679;32;20114;-76
2022/01/02 05:40:37;;;;;;;1.40;1.00;;;19.30;62.00;;;;;;4432371;32;20216;-76
2022/01/02 05:43:04;;;;;;;2.25;1.23;;;19.30;61.90;;;;;;4433700;32;20067;-76
2022/01/02 05:45:31;;;;;;;2.30;1.25;;;19.30;62.00;;;;;;4419174;32;20106;-77
2022/01/02 05:47:57;;;;;;;1.77;1.10;;;19.30;61.90;;;;;;4433420;32;20140;-75
2022/01/02 05:50:23;;;;;;;2.17;1.20;;;19.30;62.00;;;;;;4433649;32;20505;-76
2022/01/02 05:52:49;;;;;;;3.10;1.20;;;19.30;62.00;;;;;;4433289;32;20532;-76
2022/01/02 05:55:16;;;;;;;3.30;1.33;;;19.30;62.00;;;;;;4419875;32;20098;-75
2022/01/02 05:57:42;;;;;;;2.00;1.08;;;19.30;62.00;;;;;;4433307;32;20089;-75
2022/01/02 06:00:09;;;;;;;1.95;1.17;;;19.30;62.00;;;;;;4432614;32;20094;-76
2022/01/02 06:02:36;;;;;;;2.03;1.20;;;19.30;62.00;;;;;;4433116;32;20459;-76
2022/01/02 06:05:04;;;;;;;2.03;1.20;;;19.30;62.00;;;;;;4433350;32;20078;-76
2022/01/02 06:07:34;;;;;;;2.05;1.15;;;19.20;61.90;;;;;;4432589;32;20356;-76
2022/01/02 06:10:01;;;;;;;1.50;1.00;;;19.20;61.90;;;;;;4433400;32;20160;-76
2022/01/02 06:12:27;;;;;;;1.90;0.90;;;19.20;61.90;;;;;;4419426;32;20136;-76
2022/01/02 06:14:53;;;;;;;2.22;1.40;;;19.20;61.90;;;;;;4416727;32;20074;-77
2022/01/02 06:17:18;;;;;;;2.20;1.38;;;19.20;62.00;;;;;;4429953;32;20118;-75
2022/01/02 06:19:44;;;;;;;2.47;1.10;;;19.20;62.00;;;;;;4429705;32;20087;-76
2022/01/02 06:22:10;;;;;;;3.45;1.48;;;19.20;62.00;;;;;;4430550;32;20216;-75
2022/01/02 06:24:36;;;;;;;1.83;1.13;;;19.20;62.00;;;;;;4430712;32;20055;-83
2022/01/02 06:27:01;;;;;;;2.67;1.50;;;19.20;62.00;;;;;;4430958;32;20129;-75
2022/01/02 06:29:27;;;;;;;3.50;1.20;;;19.20;62.00;;;;;;4429495;32;20490;-77
2022/01/02 06:31:53;;;;;;;2.55;1.20;;;19.20;62.00;;;;;;4416439;32;20390;-75
2022/01/02 06:34:19;;;;;;;1.83;1.30;;;19.20;62.00;;;;;;4404860;32;20556;-75
2022/01/02 06:36:45;;;;;;;2.35;1.30;;;19.20;62.00;;;;;;4433475;32;20494;-75
2022/01/02 06:39:11;;;;;;;2.05;1.10;;;19.20;62.00;;;;;;4437494;32;20171;-75
2022/01/02 06:41:37;;;;;;;2.55;1.50;;;19.20;62.00;;;;;;4432922;32;20085;-83
2022/01/02 06:44:04;;;;;;;3.30;1.50;;;19.20;62.00;;;;;;4430833;32;20413;-76
2022/01/02 06:46:30;;;;;;;1.65;1.17;;;19.20;62.00;;;;;;4428993;32;20556;-76
2022/01/02 06:48:56;;;;;;;3.80;1.17;;;19.20;62.00;;;;;;4431717;32;20085;-75
2022/01/02 06:51:21;;;;;;;1.83;1.00;;;19.20;62.00;;;;;;4432021;32;20090;-76
2022/01/02 06:53:47;;;;;;;2.72;1.50;;;19.10;62.00;;;;;;4431450;32;20063;-76
2022/01/02 06:56:13;;;;;;;2.20;1.15;;;19.10;62.00;;;;;;4433409;32;20127;-77
2022/01/02 06:58:40;;;;;;;4.00;1.33;;;19.10;62.00;;;;;;4428521;32;20067;-83
2022/01/02 07:01:06;;;;;;;1.95;1.08;;;19.20;62.10;;;;;;4418562;32;20097;-76
2022/01/02 07:03:33;;;;;;;1.70;1.10;;;19.10;62.00;;;;;;4431203;32;20082;-76
2022/01/02 07:06:00;;;;;;;1.73;0.90;;;19.10;62.00;;;;;;4432014;32;20618;-75
2022/01/02 07:08:28;;;;;;;4.30;1.30;;;19.10;62.00;;;;;;4429655;32;20137;-75
2022/01/02 07:10:55;;;;;;;3.50;1.45;;;19.10;62.00;;;;;;4429169;32;20347;-76
2022/01/02 07:13:21;;;;;;;1.95;1.15;;;19.10;62.00;;;;;;4428522;32;21237;-76
2022/01/02 07:15:48;;;;;;;2.10;1.20;;;19.10;62.00;;;;;;4415442;32;20224;-76
2022/01/02 07:18:14;;;;;;;2.38;1.25;;;19.10;62.00;;;;;;4404958;32;20070;-76
2022/01/02 07:20:40;;;;;;;1.52;1.08;;;19.10;62.10;;;;;;4429625;32;20176;-75
2022/01/02 07:23:05;;;;;;;2.55;1.33;;;19.10;62.00;;;;;;4429088;32;20565;-76
2022/01/02 07:25:31;;;;;;;1.33;0.98;;;19.10;62.00;;;;;;4441027;32;20208;-75
2022/01/02 07:27:58;;;;;;;2.47;1.20;;;19.10;62.00;;;;;;4440229;32;20077;-76
2022/01/02 07:30:24;;;;;;;1.90;1.15;;;19.10;62.00;;;;;;4444675;32;20100;-76
2022/01/02 07:32:50;;;;;;;2.70;1.08;;;19.10;62.10;;;;;;4428025;32;20106;-75
2022/01/02 07:35:16;;;;;;;1.85;0.90;;;19.10;62.10;;;;;;4442440;32;20062;-75
2022/01/02 07:37:42;;;;;;;2.28;1.17;;;19.10;62.00;;;;;;4444425;32;20541;-75
2022/01/02 07:40:08;;;;;;;2.20;1.30;;;19.10;62.00;;;;;;4428087;32;20062;-75
2022/01/02 07:42:35;;;;;;;2.97;1.30;;;19.00;62.00;;;;;;4442189;32;20424;-76
2022/01/02 07:45:01;;;;;;;3.30;1.13;;;19.00;62.00;;;;;;4443041;32;20114;-75
2022/01/02 07:47:27;;;;;;;2.42;1.30;;;19.00;62.00;;;;;;4441463;32;20082;-76
2022/01/02 07:49:53;;;;;;;1.58;0.95;;;19.00;62.00;;;;;;4441866;32;20081;-76
2022/01/02 07:52:19;;;;;;;2.17;1.00;;;19.00;62.00;;;;;;4444376;32;20212;-75
2022/01/02 07:54:45;;;;;;;1.77;1.20;;;19.00;62.10;;;;;;4444264;32;20407;-75
2022/01/02 07:57:10;;;;;;;2.15;1.13;;;19.00;62.10;;;;;;4428698;32;20146;-76
2022/01/02 07:59:36;;;;;;;4.00;1.40;;;19.00;62.10;;;;;;4439798;32;20216;-76
2022/01/02 08:02:02;;;;;;;1.65;1.00;;;19.00;62.10;;;;;;4443781;32;20089;-73
2022/01/02 08:04:29;;;;;;;3.10;1.30;;;19.00;62.10;;;;;;4443875;32;20081;-80
2022/01/02 08:06:55;;;;;;;2.63;1.25;;;19.10;62.20;;;;;;4429791;32;20401;-76
2022/01/02 08:09:21;;;;;;;1.73;1.20;;;19.00;62.20;;;;;;4443888;32;20089;-75
2022/01/02 08:11:47;;;;;;;2.38;1.30;;;19.00;62.30;;;;;;4417369;32;20133;-75
2022/01/02 08:14:13;;;;;;;4.40;1.52;;;19.00;62.40;;;;;;4441577;32;20058;-75
2022/01/02 08:16:39;;;;;;;3.45;1.42;;;19.00;62.60;;;;;;4443930;32;20078;-75
2022/01/02 08:19:08;;;;;;;4.25;1.35;;;19.00;62.70;;;;;;4429204;32;20058;-76
2022/01/02 08:21:34;;;;;;;3.60;1.60;;;19.00;62.80;;;;;;4429289;32;20121;-76
2022/01/02 08:24:00;;;;;;;7.20;1.75;;;19.00;63.00;;;;;;4428845;32;20284;-76
2022/01/02 08:26:26;;;;;;;4.80;1.80;;;19.00;63.10;;;;;;4443322;32;20421;-75
2022/01/02 08:28:52;;;;;;;4.35;1.60;;;19.00;63.20;;;;;;4442869;32;20070;-79
2022/01/02 08:31:18;;;;;;;4.88;1.75;;;19.00;63.30;;;;;;4443338;32;20085;-76
2022/01/02 08:33:45;;;;;;;4.82;1.75;;;19.00;63.40;;;;;;4429368;32;20070;-76
2022/01/02 08:36:10;;;;;;;3.38;1.60;;;19.00;63.30;;;;;;4442341;32;20137;-77
2022/01/02 08:38:36;;;;;;;6.43;1.30;;;19.00;63.20;;;;;;4442905;32;20127;-76
2022/01/02 08:41:02;;;;;;;4.45;1.40;;;19.10;63.10;;;;;;4416087;32;20090;-76
2022/01/02 08:43:29;;;;;;;6.13;1.50;;;19.10;63.00;;;;;;4442945;32;20160;-77
2022/01/02 08:45:55;;;;;;;4.25;1.63;;;19.20;62.90;;;;;;4443073;32;20489;-81
2022/01/02 08:48:22;;;;;;;5.20;1.40;;;19.30;62.70;;;;;;4429333;32;20159;-76
2022/01/02 08:50:48;;;;;;;5.70;1.50;;;19.40;62.50;;;;;;4429578;32;20212;-76
2022/01/02 08:53:14;;;;;;;3.28;1.40;;;19.50;62.20;;;;;;4443180;32;20786;-78
2022/01/02 08:55:40;;;;;;;3.45;1.40;;;19.60;62.00;;;;;;4429584;32;20296;-77
2022/01/02 08:58:08;;;;;;;4.28;1.70;;;19.70;61.70;;;;;;4443216;32;20077;-78
2022/01/02 09:00:34;;;;;;;5.05;1.40;;;19.80;61.50;;;;;;4427758;32;20159;-77
2022/01/02 09:03:00;;;;;;;4.88;1.40;;;20.00;61.30;;;;;;4443021;32;20275;-78
2022/01/02 09:05:27;;;;;;;3.95;1.30;;;20.10;61.10;;;;;;4429599;32;20077;-77
2022/01/02 09:07:54;;;;;;;2.25;1.30;;;20.20;60.80;;;;;;4429466;32;20766;-77
2022/01/02 09:10:21;;;;;;;2.20;1.20;;;20.30;60.70;;;;;;4428896;32;20556;-77
2022/01/02 09:12:48;;;;;;;5.93;1.27;;;20.40;60.40;;;;;;4429398;32;20097;-76
2022/01/02 09:15:14;;;;;;;4.78;1.40;;;20.50;60.00;;;;;;4443187;32;20090;-76
2022/01/02 09:17:40;;;;;;;4.85;1.40;;;20.60;59.80;;;;;;4443354;32;20191;-76
2022/01/02 09:20:08;;;;;;;3.08;1.20;;;20.70;59.50;;;;;;4416401;32;20283;-77
2022/01/02 09:22:34;;;;;;;8.18;1.67;;;20.80;59.30;;;;;;4429315;32;20070;-76
2022/01/02 09:25:00;;;;;;;2.47;1.20;;;20.90;59.00;;;;;;4429477;32;20070;-79
2022/01/02 09:27:26;;;;;;;3.78;1.23;;;21.00;58.80;;;;;;4444041;32;20109;-77
2022/01/02 09:29:52;;;;;;;2.65;1.15;;;21.10;58.70;;;;;;4430099;32;20121;-76
2022/01/02 09:32:18;;;;;;;3.15;0.95;;;21.20;58.60;;;;;;4443632;32;20378;-77
2022/01/02 09:34:45;;;;;;;3.78;1.35;;;21.20;58.50;;;;;;4444107;32;20086;-76
2022/01/02 09:37:12;;;;;;;4.95;1.30;;;21.20;58.40;;;;;;4429875;32;20512;-76
2022/01/02 09:39:38;;;;;;;3.25;1.00;;;21.20;58.40;;;;;;4429699;32;20090;-76
2022/01/02 09:42:04;;;;;;;4.65;1.30;;;21.20;58.40;;;;;;4429983;32;20172;-76
2022/01/02 09:44:32;;;;;;;8.10;1.60;;;21.10;58.60;;;;;;4430097;32;20583;-76
2022/01/02 09:46:58;;;;;;;5.20;1.73;;;21.10;58.90;;;;;;4430258;32;20092;-76
2022/01/02 09:49:24;;;;;;;4.32;1.40;;;21.00;59.30;;;;;;4446038;32;20101;-76
2022/01/02 09:51:50;;;;;;;7.60;1.85;;;20.90;59.30;;;;;;4432718;32;20443;-76
2022/01/02 09:54:16;;;;;;;3.88;1.83;;;20.90;59.50;;;;;;4446345;32;20211;-73
2022/01/02 09:56:42;;;;;;;4.75;1.65;;;20.80;59.70;;;;;;4432728;32;20092;-76
2022/01/02 09:59:08;;;;;;;8.13;1.55;;;20.70;59.90;;;;;;4446218;32;20412;-78
2022/01/02 10:01:34;;;;;;;4.70;1.60;;;20.70;60.00;;;;;;4446800;32;20173;-80
2022/01/02 10:04:00;;;;;;;3.15;1.45;;;20.60;60.00;;;;;;4446713;32;20148;-78
2022/01/02 10:06:46;;;;;;;6.18;1.52;;;20.60;60.10;;;;;;4432340;32;20720;-76
2022/01/02 10:09:34;;;;;;;4.25;1.40;;;20.60;60.20;;;;;;4446500;32;20232;-76
2022/01/02 10:12:23;;;;;;;4.25;1.33;;;20.60;60.30;;;;;;4431193;32;20152;-79
2022/01/02 10:15:23;;;;;;;3.88;1.60;;;20.60;60.30;;;;;;4429939;32;20117;-79
2022/01/02 10:18:05;;;;;;;3.72;1.42;;;20.60;60.30;;;;;;4398326;32;20509;-78
2022/01/02 10:20:38;;;;;;;3.78;1.30;;;20.70;60.40;;;;;;4435609;32;20638;-83
2022/01/02 10:23:10;;;;;;;3.60;1.40;;;20.70;60.30;;;;;;4447325;32;20073;-81
2022/01/02 10:26:00;;;;;;;2.78;1.40;;;20.70;60.40;;;;;;4430474;32;20626;-83
2022/01/02 10:28:39;;;;;;;7.75;2.05;;;20.70;60.40;;;;;;4443585;32;20144;-82
2022/01/02 10:31:10;;;;;;;2.17;1.30;;;20.70;60.50;;;;;;4426365;32;20489;-80
2022/01/02 10:33:52;;;;;;;3.38;1.40;;;20.70;60.50;;;;;;4442265;32;20081;-85
2022/01/02 10:36:31;;;;;;;3.72;1.52;;;20.70;60.50;;;;;;4443151;32;20405;-80
2022/01/02 10:39:15;;;;;;;3.33;1.30;;;20.70;60.60;;;;;;4438440;32;20083;-85
2022/01/02 10:41:45;;;;;;;2.75;1.40;;;20.70;60.50;;;;;;4430251;32;20086;-81
2022/01/02 10:44:23;;;;;;;3.55;1.60;;;20.60;60.50;;;;;;4430070;32;20102;-82
2022/01/02 10:47:09;;;;;;;4.53;1.52;;;20.60;60.60;;;;;;4443315;32;20092;-80
2022/01/02 10:50:05;;;;;;;7.97;1.50;;;20.60;60.70;;;;;;4416214;32;20098;-85
2022/01/02 10:52:36;;;;;;;5.70;1.60;;;20.60;60.80;;;;;;4424155;32;30665;-79
2022/01/02 10:55:17;;;;;;;3.90;1.60;;;20.50;60.80;;;;;;4438345;32;20157;-84
2022/01/02 10:57:49;;;;;;;5.03;1.30;;;20.50;61.00;;;;;;4442735;32;20130;-82
2022/01/02 11:00:24;;;;;;;2.65;1.27;;;20.50;61.00;;;;;;4449935;32;20074;-85
2022/01/02 11:02:50;;;;;;;3.10;1.60;;;20.50;61.10;;;;;;4437897;32;20158;-83
2022/01/02 11:05:19;;;;;;;2.60;1.40;;;20.50;61.00;;;;;;4434225;32;20083;-89
2022/01/02 11:07:46;;;;;;;4.05;1.60;;;20.50;61.00;;;;;;4442342;32;20074;-77
2022/01/02 11:10:15;;;;;;;3.60;1.75;;;20.50;61.00;;;;;;4444596;32;20129;-79
2022/01/02 11:12:42;;;;;;;2.78;1.45;;;20.50;61.00;;;;;;4440582;32;20351;-84
2022/01/02 11:15:11;;;;;;;3.83;1.50;;;20.50;61.00;;;;;;4424989;32;20083;-78
2022/01/02 11:17:37;;;;;;;3.45;1.48;;;20.50;61.00;;;;;;4441840;32;20714;-79
2022/01/02 11:20:09;;;;;;;4.72;1.85;;;20.50;60.90;;;;;;4444895;32;20532;-80
2022/01/02 11:22:44;;;;;;;7.07;1.70;;;20.50;60.80;;;;;;4441857;32;20168;-77
2022/01/02 11:25:29;;;;;;;5.30;2.00;;;20.50;60.80;;;;;;4431162;32;20205;-78
2022/01/02 11:27:59;;;;;;;5.18;1.90;;;20.50;60.80;;;;;;4426989;32;20149;-77
2022/01/02 11:30:32;;;;;;;8.80;2.10;;;20.50;60.70;;;;;;4428402;32;20534;-81
2022/01/02 11:33:06;;;;;;;3.53;1.70;;;20.50;60.80;;;;;;4430373;32;20096;-81
2022/01/02 11:35:35;;;;;;;8.15;2.13;;;20.50;60.70;;;;;;4432700;32;20066;-78
2022/01/02 11:38:02;;;;;;;9.02;2.05;;;20.50;60.60;;;;;;4433321;32;20215;-79
2022/01/02 11:40:47;;;;;;;6.30;2.25;;;20.60;60.70;;;;;;4433205;32;20097;-83
2022/01/02 11:43:35;;;;;;;6.57;2.70;;;20.50;60.50;;;;;;4443924;32;20096;-79
2022/01/02 11:46:30;;;;;;;5.95;2.38;;;20.60;60.50;;;;;;4443765;32;20077;-80
2022/01/02 11:49:16;;;;;;;7.05;2.10;;;20.60;60.50;;;;;;4430317;32;20287;-78
2022/01/02 11:51:48;;;;;;;6.57;2.08;;;20.60;60.50;;;;;;4430624;32;20337;-79
2022/01/02 11:54:32;;;;;;;7.80;2.58;;;20.60;60.40;;;;;;4414661;32;23362;-78
2022/01/02 11:57:23;;;;;;;8.70;2.30;;;20.60;60.40;;;;;;4443869;32;20101;-77
2022/01/02 11:59:48;;;;;;;6.82;2.22;;;20.60;60.40;;;;;;4443270;32;20085;-79
2022/01/02 12:02:24;;;;;;;9.27;2.60;;;20.50;60.30;;;;;;4444246;32;20066;-78
2022/01/02 12:07:34;;;;;;;7.18;2.70;;;20.60;60.10;;;;;;4443784;32;20078;-81
2022/01/02 12:10:15;;;;;;;8.60;2.65;;;20.50;60.10;;;;;;4429443;32;20093;-78
2022/01/02 12:13:00;;;;;;;9.18;2.80;;;20.50;60.00;;;;;;4443441;32;20180;-78
2022/01/02 12:15:32;;;;;;;9.57;2.90;;;20.50;60.00;;;;;;4429627;32;20288;-75
2022/01/02 12:18:19;;;;;;;10.07;2.67;;;20.40;60.00;;;;;;4443140;32;20156;-82
2022/01/02 12:20:56;;;;;;;4.68;2.38;;;20.40;59.90;;;;;;4443614;32;20133;-82
2022/01/02 12:23:45;;;;;;;9.90;2.75;;;20.40;59.90;;;;;;4443376;32;20125;-87
2022/01/02 12:26:20;;;;;;;9.43;3.05;;;20.40;59.80;;;;;;4423323;32;20318;-81
2022/01/02 12:28:47;;;;;;;8.30;2.88;;;20.30;59.80;;;;;;4442984;32;20424;-80
2022/01/02 12:31:15;;;;;;;11.90;2.70;;;20.30;59.90;;;;;;4444310;32;20168;-80
2022/01/02 12:33:43;;;;;;;11.30;2.80;;;20.30;59.80;;;;;;4444332;32;20101;-86
2022/01/02 12:36:17;;;;;;;11.05;2.80;;;20.40;59.90;;;;;;4444646;32;20395;-76
2022/01/02 12:38:51;;;;;;;9.43;2.95;;;20.40;59.90;;;;;;4444336;32;20436;-74
2022/01/02 12:41:23;;;;;;;12.55;2.70;;;20.40;59.90;;;;;;4444415;32;20099;-84
2022/01/02 12:43:58;;;;;;;14.07;2.65;;;20.40;59.90;;;;;;4443617;32;20090;-75
2022/01/02 12:46:50;;;;;;;8.95;2.55;;;20.40;59.70;;;;;;4444494;32;20101;-80
2022/01/02 12:49:30;;;;;;;13.75;2.75;;;20.40;59.50;;;;;;4444332;32;20078;-76
2022/01/02 12:51:56;;;;;;;10.32;3.00;;;20.40;59.40;;;;;;4418118;32;20200;-77
2022/01/02 12:54:27;;;;;;;21.02;3.58;;;20.40;59.60;;;;;;4430438;32;20122;-80
2022/01/02 12:56:55;;;;;;;11.60;3.65;;;20.40;59.50;;;;;;4444146;32;20090;-81
2022/01/02 12:59:41;;;;;;;15.23;4.00;;;20.40;59.40;;;;;;4430753;32;20094;-87
2022/01/02 13:02:19;;;;;;;15.30;3.33;;;20.40;59.30;;;;;;4444059;32;20512;-77
2022/01/02 13:04:48;;;;;;;12.07;3.13;;;20.40;59.30;;;;;;4443819;32;20082;-77
2022/01/02 13:07:29;;;;;;;10.30;2.90;;;20.40;59.20;;;;;;4440598;32;20078;-74